Flight Track Log - Related Links

Times and Time Zones

All times are in EDT time to prevent confusion due to time zone crossing. See the ASQ5685 flight status page for this flight to view local times or setup timezone preferences in your user account.

Time Position Orientation Groundspeed Altitude Reporting Facility
EDT Latitude Longitude Course Direction KTS MPH feet Rate Location/Type
Fri 09:28:15 AM 33.6333 -84.3833 48° Northeast 171 197 2,200  Level Atlanta TRACON
Fri 09:29:09 AM 33.6333 -84.3167 90° East 244 281 3,800 2,000 Climbing Atlanta TRACON
Fri 09:30:00 AM 33.8489 -84.1758 73° East  Level Estimated
Fri 09:30:03 AM 33.6333 -84.2333 90° East 272 313 5,800  Level Atlanta TRACON
Fri 09:31:00 AM 33.9195 -84.0915 54° Northeast  Level Estimated
Fri 09:31:54 AM 33.6900 -84.0789 66° East 314 361 10,000  Level Atlanta Center
Fri 09:32:00 AM 33.8995 -83.9742 102° East  Level FlightAware Approximate
Fri 09:32:54 AM 33.7442 -83.9964 52° Northeast 308 354 11,200  Level Atlanta Center
Fri 09:33:00 AM 33.9707 -83.8906 48° Northeast  Level Estimated
Fri 09:33:54 AM 33.8067 -83.9014 52° Northeast 337 388 12,600  Level Atlanta Center
Fri 09:34:54 AM 33.8608 -83.8186 52° Northeast 349 402 13,900 1,300 Climbing Atlanta Center
Fri 09:35:54 AM 33.9253 -83.7208 52° Northeast 354 407 15,200 1,300 Climbing Atlanta Center
Fri 09:36:54 AM 33.9856 -83.6206 54° Northeast 365 420 16,500 1,250 Climbing Atlanta Center
Fri 09:37:54 AM 34.0500 -83.5247 51° Northeast 365 420 17,700 950 Climbing Atlanta Center
Fri 09:38:54 AM 34.1142 -83.4217 53° Northeast 372 428 18,400 750 Climbing Atlanta Center
Fri 09:39:54 AM 34.1803 -83.3131 54° Northeast 387 445 19,200 800 Climbing Atlanta Center
Fri 09:40:54 AM 34.2486 -83.2044 53° Northeast 394 453 20,000 850 Climbing Atlanta Center
Fri 09:41:54 AM 34.3125 -83.0931 55° Northeast 401 461 20,900 850 Climbing Atlanta Center
Fri 09:42:54 AM 34.3886 -82.9767 52° Northeast 401 461 21,700 700 Climbing Atlanta Center
Fri 09:43:54 AM 34.4544 -82.8647 54° Northeast 401 461 22,300 600 Climbing Atlanta Center
Fri 09:44:54 AM 34.5286 -82.7578 50° Northeast 406 467 22,900 600 Climbing Atlanta Center
Fri 09:45:54 AM 34.5939 -82.6433 55° Northeast 411 473 23,500 600 Climbing Atlanta Center
Fri 09:46:54 AM 34.6597 -82.5464 50° Northeast 411 473 24,100 1,750 Climbing Atlanta Center
Fri 09:47:54 AM 34.7250 -82.4314 55° Northeast 411 473 27,000 1,450 Climbing Atlanta Center
Fri 09:48:54 AM 34.7964 -82.3214 52° Northeast 416 479 27,000 -550 Level Atlanta Center
Fri 09:49:54 AM 34.8658 -82.2033 54° Northeast 416 479 25,900 -250 Descending Atlanta Center
Fri 09:50:54 AM 34.9372 -82.0931 52° Northeast 416 479 26,500 550 Climbing Atlanta Center
Fri 09:51:54 AM 35.0122 -81.9669 54° Northeast 416 479 27,000 250 Climbing Atlanta Center
Fri 09:52:54 AM 35.0789 -81.8458 56° Northeast 421 484 27,000  Level Atlanta Center
Fri 09:53:54 AM 35.1436 -81.7222 57° Northeast 429 494 27,000  Level Atlanta Center
Fri 09:54:54 AM 35.2058 -81.6011 58° Northeast 434 499 27,000  Level Atlanta Center
Fri 09:55:54 AM 35.2700 -81.4797 57° Northeast 422 486 27,000  Level Atlanta Center
Fri 09:56:54 AM 35.3303 -81.3631 58° Northeast 417 480 27,000  Level Atlanta Center
Fri 09:57:54 AM 35.3903 -81.2492 57° Northeast 412 474 27,000  Level Atlanta Center
Fri 09:58:54 AM 35.4500 -81.1300 58° Northeast 412 474 27,000  Level Atlanta Center
Fri 09:59:54 AM 35.5119 -81.0128 57° Northeast 412 474 27,000  Level Atlanta Center
Fri 10:00:54 AM 35.5717 -80.8983 57° Northeast 406 467 27,000  Level Atlanta Center
Fri 10:01:54 AM 35.6333 -80.7861 56° Northeast 401 461 27,000  Level Atlanta Center
Fri 10:02:54 AM 35.6889 -80.6739 59° Northeast 396 456 27,000  Level Atlanta Center
Fri 10:03:54 AM 35.7503 -80.5561 57° Northeast 396 456 27,000  Level Atlanta Center
Fri 10:04:54 AM 35.8075 -80.4436 58° Northeast 396 456 27,000  Level Atlanta Center
Fri 10:06:44 AM 35.9111 -80.2492 57° Northeast 394 453 27,000  Level Washington Center
Fri 10:07:44 AM 35.9656 -80.1344 60° Northeast 394 453 27,000  Level Washington Center
Fri 10:08:44 AM 36.0217 -80.0272 57° Northeast 389 448 27,000  Level Washington Center
Fri 10:09:42 AM 36.0844 -79.9125 56° Northeast 389 448 27,000  Level Washington Center
Fri 10:10:44 AM 36.1467 -79.8028 55° Northeast 389 448 27,000  Level Washington Center
Fri 10:11:42 AM 36.2178 -79.6778 55° Northeast 389 448 27,000  Level Washington Center
Fri 10:12:43 AM 36.2736 -79.5725 57° Northeast 389 448 27,000  Level Washington Center
Fri 10:13:44 AM 36.3422 -79.4522 55° Northeast 394 453 27,000  Level Washington Center
Fri 10:14:44 AM 36.3975 -79.3492 56° Northeast 394 453 27,000  Level Washington Center
Fri 10:15:42 AM 36.4617 -79.2361 55° Northeast 394 453 27,000 -151 Level Washington Center
Fri 10:16:43 AM 36.5275 -79.1253 54° Northeast 394 453 26,700 -694 Descending Washington Center
Fri 10:17:43 AM 36.5936 -79.0067 55° Northeast 399 459 25,600 -850 Descending Washington Center
Fri 10:18:43 AM 36.6639 -78.8831 55° Northeast 416 479 25,000 -298 Descending Washington Center
Fri 10:19:44 AM 36.7275 -78.7586 57° Northeast 429 494 25,000 -1,513 Level Washington Center
Fri 10:20:42 AM 36.7911 -78.6394 56° Northeast 429 494 22,000 -353 Descending Washington Center
Fri 10:21:43 AM 36.8567 -78.5225 55° Northeast 418 481 24,300 639 Climbing Washington Center
Fri 10:22:44 AM 36.9156 -78.4131 56° Northeast 395 455 23,300 -1,109 Descending Washington Center
Fri 10:23:42 AM 36.9853 -78.2908 54° Northeast 388 447 22,100 -661 Descending Washington Center
Fri 10:24:42 AM 37.0519 -78.1942 49° Northeast 383 441 22,000 -50 Descending Washington Center
Fri 10:25:43 AM 37.1392 -78.1269 32° Northeast 363 418 22,000  Level Washington Center
Fri 10:26:43 AM 37.2322 -78.0594 30° Northeast 368 423 22,000  Level Washington Center
Fri 10:27:44 AM 37.3214 -77.9892 32° Northeast 373 429 22,000  Level Washington Center
Fri 10:28:42 AM 37.4103 -77.9189 32° Northeast 373 429 22,000 -101 Level Washington Center
Fri 10:29:43 AM 37.4992 -77.8483 32° Northeast 373 429 21,800 -787 Descending Washington Center
Fri 10:30:44 AM 37.5919 -77.7908 26° Northeast 368 423 20,400 -1,388 Descending Washington Center
Fri 10:31:44 AM 37.6806 -77.7408 24° Northeast 349 402 19,000 -1,373 Descending Washington Center
Fri 10:32:42 AM 37.7669 -77.6856 27° Northeast 344 396 17,700 -1,475 Descending Washington Center
Fri 10:33:42 AM 37.8575 -77.6381 22° Northeast 344 396 16,100 -1,636 Descending Washington Center
Fri 10:34:43 AM 37.9419 -77.5878 25° Northeast 339 390 14,400 -1,672 Descending Washington Center
Fri 10:35:44 AM 38.0219 -77.5369 27° Northeast 327 376 12,700 -1,714 Descending Washington Center
Fri 10:36:42 AM 38.0997 -77.4942 23° Northeast 315 362 11,000 -1,361 Descending Washington Center
Fri 10:37:43 AM 38.1778 -77.4486 25° Northeast 309 356 10,000 -836 Descending Washington Center
Fri 10:38:44 AM 38.2492 -77.4056 25° Northeast 298 343 9,300 -843 Descending Washington Center
Fri 10:39:44 AM 38.3289 -77.3836 12° North 293 337 8,300 -1,017 Descending Washington Center
Fri 10:40:42 AM 38.4058 -77.3856 359° North 282 325 7,300 -1,008 Descending Washington Center
Fri 10:41:43 AM 38.4719 -77.4322 331° Northwest 259 298 6,300 -984 Descending Washington Center
Fri 10:42:44 AM 38.5447 -77.4472 351° North 259 298 5,300 -1,008 Descending Washington Center
Fri 10:43:42 AM 38.6197 -77.4436 North 259 298 4,300 -772 Descending Washington Center
Fri 10:44:25 AM 38.6667 -77.4333 10° North 257 296 4,000 -757 Descending Potomac TRACON
Fri 10:45:25 AM 38.7500 -77.4333 360° North 252 290 3,000 -1,000 Descending Potomac TRACON

Login

Don't have an account? Register now (free) for customized features, flight alerts, and more!